Time;durP1;ratioP1;P1;durP2;ratioP2;P2;SDS_P1;SDS_P2;PMS_P1;PMS_P2;Temp;Humidity;BMP_temperature;BMP_pressure;BME280_temperature;BME280_humidity;BME280_pressure;Samples;Min_cycle;Max_cycle;Signal;HPM_P1;HPM_P2
2023/07/25 00:02:23;;;;;;;18.63;16.27;;;28.10;99.90;;;;;;5086722;28;21033;-84
2023/07/25 00:04:48;;;;;;;20.80;16.40;;;28.10;99.90;;;;;;5088115;28;20975;-75
2023/07/25 00:07:14;;;;;;;21.83;16.07;;;28.10;99.90;;;;;;5087997;28;20430;-84
2023/07/25 00:09:40;;;;;;;22.17;17.77;;;28.10;99.90;;;;;;5086647;28;20177;-83
2023/07/25 00:12:06;;;;;;;21.20;16.67;;;28.10;99.90;;;;;;5086454;28;20197;-84
2023/07/25 00:14:33;;;;;;;22.63;17.10;;;28.10;99.90;;;;;;5088046;28;20552;-76
2023/07/25 00:16:59;;;;;;;20.10;16.87;;;28.10;99.90;;;;;;5086466;28;20193;-84
2023/07/25 00:19:25;;;;;;;24.03;16.27;;;28.10;99.90;;;;;;5087239;28;20417;-75
2023/07/25 00:21:51;;;;;;;24.37;17.57;;;28.00;99.90;;;;;;5086738;28;20471;-76
2023/07/25 00:24:17;;;;;;;23.27;17.27;;;28.00;99.90;;;;;;5086203;28;20965;-83
2023/07/25 00:26:43;;;;;;;23.27;17.80;;;27.90;99.90;;;;;;5086245;28;20181;-75
2023/07/25 00:29:09;;;;;;;23.83;17.67;;;27.90;99.90;;;;;;5085834;28;20443;-76
2023/07/25 00:31:34;;;;;;;21.23;17.40;;;27.80;99.90;;;;;;5087569;28;20174;-75
2023/07/25 00:34:00;;;;;;;23.43;18.87;;;27.80;99.90;;;;;;5085793;28;20187;-84
2023/07/25 00:36:26;;;;;;;25.83;17.10;;;27.70;99.90;;;;;;5087627;28;20256;-76
2023/07/25 00:38:52;;;;;;;21.90;17.47;;;27.70;99.90;;;;;;5086089;28;20772;-83
2023/07/25 00:41:17;;;;;;;20.87;18.40;;;27.60;99.90;;;;;;5086015;28;20215;-76
2023/07/25 00:43:43;;;;;;;21.27;18.73;;;27.50;99.90;;;;;;5086870;28;20834;-83
2023/07/25 00:46:09;;;;;;;21.33;17.27;;;27.50;99.90;;;;;;5085968;28;20450;-77
2023/07/25 00:48:35;;;;;;;23.00;19.30;;;27.50;99.90;;;;;;5085545;28;20206;-84
2023/07/25 00:51:02;;;;;;;24.00;19.07;;;27.50;99.90;;;;;;5087276;28;20666;-75
2023/07/25 00:53:28;;;;;;;23.13;17.50;;;27.50;99.90;;;;;;5087679;28;20463;-76
2023/07/25 00:55:54;;;;;;;21.80;17.57;;;27.50;99.90;;;;;;5087422;28;20417;-83
2023/07/25 00:58:21;;;;;;;18.63;16.63;;;27.50;99.90;;;;;;5086522;28;20459;-83
2023/07/25 01:00:46;;;;;;;21.90;17.60;;;27.50;99.90;;;;;;5086700;28;20483;-76
2023/07/25 01:03:13;;;;;;;23.67;19.00;;;27.60;99.90;;;;;;5085832;28;20523;-80
2023/07/25 01:05:41;;;;;;;24.60;18.37;;;27.60;99.90;;;;;;5086466;28;20312;-84
2023/07/25 01:08:08;;;;;;;22.10;17.90;;;27.60;99.90;;;;;;5086963;28;20449;-76
2023/07/25 01:10:34;;;;;;;23.67;17.53;;;27.60;99.90;;;;;;5085343;28;20437;-77
2023/07/25 01:13:02;;;;;;;20.83;17.43;;;27.60;99.90;;;;;;5086682;28;20540;-76
2023/07/25 01:15:29;;;;;;;24.23;18.10;;;27.50;99.90;;;;;;5086739;28;20469;-76
2023/07/25 01:17:55;;;;;;;18.23;15.23;;;27.40;99.90;;;;;;5086523;28;20527;-84
2023/07/25 01:20:22;;;;;;;25.73;14.70;;;27.30;99.90;;;;;;5085664;28;20543;-77
2023/07/25 01:22:48;;;;;;;19.13;12.37;;;27.20;99.90;;;;;;5086766;28;20441;-77
2023/07/25 01:25:14;;;;;;;18.17;11.50;;;27.10;99.90;;;;;;5086445;28;20421;-76
2023/07/25 01:27:40;;;;;;;22.13;10.10;;;27.20;99.90;;;;;;5086780;28;20436;-84
2023/07/25 01:30:06;;;;;;;22.10;7.97;;;27.20;99.90;;;;;;5086074;28;20183;-83
2023/07/25 01:32:32;;;;;;;20.57;9.50;;;27.20;99.90;;;;;;5085044;28;20676;-83
2023/07/25 01:34:58;;;;;;;18.13;6.83;;;27.20;99.90;;;;;;5086157;28;20458;-82
2023/07/25 01:37:24;;;;;;;28.53;6.70;;;27.20;99.90;;;;;;5086451;28;20615;-77
2023/07/25 01:39:50;;;;;;;17.00;5.87;;;27.10;99.90;;;;;;5086018;28;20397;-76
2023/07/25 01:42:16;;;;;;;7.13;4.60;;;27.10;99.90;;;;;;5086095;28;20242;-75
2023/07/25 01:44:41;;;;;;;12.70;5.07;;;27.10;99.90;;;;;;5086000;28;20805;-77
2023/07/25 01:47:07;;;;;;;8.63;4.97;;;27.10;99.90;;;;;;5085774;28;20239;-82
2023/07/25 01:49:33;;;;;;;6.73;4.53;;;27.10;99.90;;;;;;5085624;28;20653;-83
2023/07/25 01:51:58;;;;;;;8.00;4.27;;;27.10;99.90;;;;;;5085843;28;20199;-83
2023/07/25 01:54:24;;;;;;;9.43;4.67;;;27.10;99.90;;;;;;5084915;28;20409;-82
2023/07/25 01:56:50;;;;;;;6.63;3.83;;;27.10;99.90;;;;;;5086340;28;20197;-83
2023/07/25 01:59:16;;;;;;;4.10;3.33;;;27.00;99.90;;;;;;5085461;28;20224;-83
2023/07/25 02:01:42;;;;;;;9.87;4.10;;;27.00;99.90;;;;;;5085811;28;20316;-76
2023/07/25 02:04:08;;;;;;;5.13;3.30;;;26.90;99.90;;;;;;5085560;28;20507;-81
2023/07/25 02:06:33;;;;;;;8.37;3.40;;;26.90;99.90;;;;;;5085882;28;20418;-84
2023/07/25 02:08:59;;;;;;;7.47;2.90;;;26.90;99.90;;;;;;5086000;28;20371;-83
2023/07/25 02:11:24;;;;;;;6.33;3.67;;;26.90;99.90;;;;;;5084650;28;20581;-76
2023/07/25 02:13:50;;;;;;;6.10;3.30;;;26.90;99.90;;;;;;5085875;28;20177;-83
2023/07/25 02:16:16;;;;;;;5.07;3.50;;;26.90;99.90;;;;;;5085706;28;20640;-76
2023/07/25 02:18:41;;;;;;;7.03;3.70;;;26.90;99.90;;;;;;5085714;28;20188;-83
2023/07/25 02:21:07;;;;;;;7.03;4.07;;;26.80;99.90;;;;;;5084821;28;20218;-83
2023/07/25 02:23:33;;;;;;;7.60;3.17;;;26.80;99.90;;;;;;5085008;28;20277;-83
2023/07/25 02:25:58;;;;;;;3.97;2.60;;;26.80;99.90;;;;;;5085415;28;20175;-78
2023/07/25 02:28:24;;;;;;;7.13;3.50;;;26.80;99.90;;;;;;5085451;28;20200;-83
2023/07/25 02:30:50;;;;;;;4.93;2.80;;;26.80;99.90;;;;;;5083762;28;20199;-76
2023/07/25 02:33:15;;;;;;;6.40;3.13;;;26.80;99.90;;;;;;5085767;28;20199;-76
2023/07/25 02:35:41;;;;;;;6.80;3.10;;;26.70;99.90;;;;;;5085623;28;20256;-81
2023/07/25 02:38:07;;;;;;;5.00;3.00;;;26.70;99.90;;;;;;5084475;28;20738;-76
2023/07/25 02:40:33;;;;;;;7.30;2.73;;;26.70;99.90;;;;;;5085495;28;20449;-77
2023/07/25 02:42:58;;;;;;;6.90;3.30;;;26.70;99.90;;;;;;5085447;28;20504;-76
2023/07/25 02:45:24;;;;;;;4.50;3.50;;;26.70;99.90;;;;;;5085213;28;20172;-76
2023/07/25 02:47:50;;;;;;;7.53;3.10;;;26.60;99.90;;;;;;5085298;28;20203;-83
2023/07/25 02:50:15;;;;;;;7.83;3.30;;;26.60;99.90;;;;;;5083510;28;20649;-82
2023/07/25 02:52:42;;;;;;;7.63;3.93;;;26.60;99.90;;;;;;5085332;28;20200;-83
2023/07/25 02:55:08;;;;;;;6.70;3.43;;;26.60;99.90;;;;;;5083905;28;20547;-82
2023/07/25 02:57:33;;;;;;;4.97;3.20;;;26.60;99.90;;;;;;5083551;28;20866;-83
2023/07/25 02:59:59;;;;;;;7.67;3.10;;;26.60;99.90;;;;;;5085136;28;20413;-76
2023/07/25 03:02:25;;;;;;;8.17;3.70;;;26.60;99.90;;;;;;5085282;28;20212;-83
2023/07/25 03:04:50;;;;;;;6.57;3.23;;;26.60;99.90;;;;;;5085060;28;20173;-76
2023/07/25 03:07:16;;;;;;;5.13;3.70;;;26.60;99.90;;;;;;5088839;28;20251;-83
2023/07/25 03:09:41;;;;;;;11.53;3.50;;;26.60;99.90;;;;;;5089283;28;20573;-75
2023/07/25 03:12:07;;;;;;;12.40;3.80;;;26.60;99.90;;;;;;5087742;28;20204;-83
2023/07/25 03:14:33;;;;;;;7.13;3.13;;;26.60;99.90;;;;;;5087443;28;20802;-76
2023/07/25 03:16:59;;;;;;;5.43;3.70;;;26.60;99.90;;;;;;5087653;28;20447;-82
2023/07/25 03:19:24;;;;;;;9.13;3.63;;;26.60;99.90;;;;;;5088894;28;20172;-76
2023/07/25 03:21:50;;;;;;;6.80;4.13;;;26.60;99.90;;;;;;5087559;28;20293;-83
2023/07/25 03:24:16;;;;;;;6.60;4.47;;;26.60;99.90;;;;;;5088665;28;20173;-77
2023/07/25 03:26:42;;;;;;;9.30;4.40;;;26.50;99.90;;;;;;5087646;28;20913;-76
2023/07/25 03:29:08;;;;;;;8.03;3.33;;;26.50;99.90;;;;;;5087285;28;20176;-76
2023/07/25 03:31:33;;;;;;;7.27;3.80;;;26.40;99.90;;;;;;5088785;28;20183;-76
2023/07/25 03:33:59;;;;;;;11.67;4.10;;;26.40;99.90;;;;;;5088976;28;20500;-76
2023/07/25 03:36:25;;;;;;;8.20;3.97;;;26.40;99.90;;;;;;5087172;28;20181;-76
2023/07/25 03:38:51;;;;;;;7.83;3.77;;;26.40;99.90;;;;;;5087102;28;20238;-84
2023/07/25 03:41:16;;;;;;;6.50;3.60;;;26.20;99.90;;;;;;5088360;28;20499;-82
2023/07/25 03:43:42;;;;;;;6.10;3.53;;;26.20;99.90;;;;;;5088465;28;20203;-76
2023/07/25 03:46:07;;;;;;;7.13;3.87;;;26.10;99.90;;;;;;5088665;28;20179;-77
2023/07/25 03:48:33;;;;;;;8.77;3.97;;;26.10;99.90;;;;;;5087442;28;20253;-83
2023/07/25 03:50:59;;;;;;;7.20;4.17;;;26.00;99.90;;;;;;5087846;28;20183;-83
2023/07/25 03:53:24;;;;;;;10.03;3.90;;;26.10;99.90;;;;;;5086927;28;20722;-76
2023/07/25 03:55:50;;;;;;;7.90;3.93;;;26.10;99.90;;;;;;5088302;28;20180;-81
2023/07/25 03:58:15;;;;;;;8.53;3.80;;;26.10;99.90;;;;;;5088307;28;20236;-76
2023/07/25 04:00:41;;;;;;;6.33;3.60;;;26.10;99.90;;;;;;5087567;28;20695;-82
2023/07/25 04:03:07;;;;;;;6.97;3.63;;;26.10;99.90;;;;;;5088329;28;20676;-84
2023/07/25 04:05:33;;;;;;;6.77;3.47;;;26.00;99.90;;;;;;5086465;28;20216;-83
2023/07/25 04:07:59;;;;;;;8.17;3.40;;;26.00;99.90;;;;;;5087730;28;20433;-84
2023/07/25 04:10:26;;;;;;;8.87;3.83;;;25.90;99.90;;;;;;5086587;28;20181;-83
2023/07/25 04:12:52;;;;;;;6.00;3.67;;;25.80;99.90;;;;;;5087878;28;20527;-83
2023/07/25 04:15:18;;;;;;;6.70;3.60;;;25.80;99.90;;;;;;5087880;28;20405;-76
2023/07/25 04:17:43;;;;;;;8.02;4.40;;;25.80;99.90;;;;;;5086403;28;20421;-77
2023/07/25 04:20:09;;;;;;;8.20;4.43;;;25.80;99.90;;;;;;5085678;28;20240;-78
2023/07/25 04:22:35;;;;;;;9.07;4.40;;;25.80;99.90;;;;;;5085971;28;20207;-83
2023/07/25 04:25:01;;;;;;;10.97;3.80;;;25.80;99.90;;;;;;5088103;28;20401;-82
2023/07/25 04:27:28;;;;;;;9.80;4.23;;;25.80;99.90;;;;;;5087501;28;20215;-78
2023/07/25 04:29:54;;;;;;;5.63;3.77;;;25.80;99.90;;;;;;5087615;28;20217;-84
2023/07/25 04:32:19;;;;;;;9.60;4.17;;;25.90;99.90;;;;;;5086213;28;20905;-83
2023/07/25 04:34:45;;;;;;;9.03;4.20;;;26.00;99.90;;;;;;5087432;28;20179;-78
2023/07/25 04:37:10;;;;;;;9.03;3.90;;;26.20;99.90;;;;;;5087481;28;20217;-83
2023/07/25 04:39:36;;;;;;;9.87;3.70;;;26.20;99.90;;;;;;5087293;28;20732;-80
2023/07/25 04:42:02;;;;;;;5.07;3.27;;;26.30;99.90;;;;;;5087350;28;20391;-83
2023/07/25 04:44:27;;;;;;;5.73;3.30;;;26.40;99.90;;;;;;5087146;28;20248;-83
2023/07/25 04:46:53;;;;;;;6.93;4.10;;;26.40;99.90;;;;;;5086794;28;20193;-83
2023/07/25 04:49:19;;;;;;;9.10;3.77;;;26.40;99.90;;;;;;5085556;28;20173;-82
2023/07/25 04:51:44;;;;;;;8.23;3.70;;;26.40;99.90;;;;;;5086608;28;20223;-78
2023/07/25 04:54:10;;;;;;;9.97;4.70;;;26.40;99.90;;;;;;5087486;28;20176;-80
2023/07/25 04:56:35;;;;;;;7.50;3.20;;;26.50;99.90;;;;;;5085703;28;20780;-78
2023/07/25 04:59:01;;;;;;;7.13;4.03;;;26.60;99.90;;;;;;5086765;28;20243;-80
2023/07/25 05:01:27;;;;;;;6.40;3.27;;;26.70;99.90;;;;;;5086712;28;20216;-83
2023/07/25 05:03:52;;;;;;;7.57;3.93;;;26.70;99.90;;;;;;5087247;28;20172;-83
2023/07/25 05:06:18;;;;;;;17.10;4.00;;;26.80;99.90;;;;;;5086833;28;20169;-78
2023/07/25 05:08:43;;;;;;;6.20;4.57;;;26.90;99.90;;;;;;5086943;28;20210;-83
2023/07/25 05:11:09;;;;;;;5.80;3.53;;;27.00;99.90;;;;;;5085559;28;20204;-82
2023/07/25 05:13:35;;;;;;;4.93;3.17;;;27.10;99.90;;;;;;5086375;28;20196;-83
2023/07/25 05:16:00;;;;;;;5.50;3.60;;;27.20;99.90;;;;;;5085593;28;20184;-78
2023/07/25 05:18:26;;;;;;;7.47;3.60;;;27.40;99.90;;;;;;5086458;28;20199;-83
2023/07/25 05:20:52;;;;;;;6.87;4.37;;;27.50;99.90;;;;;;5086574;28;20223;-83
2023/07/25 05:23:17;;;;;;;6.23;3.77;;;27.50;99.90;;;;;;5086482;28;20196;-83
2023/07/25 05:25:46;;;;;;;5.53;3.23;;;27.60;99.90;;;;;;5084502;28;20176;-79
2023/07/25 05:28:12;;;;;;;5.10;3.13;;;27.60;99.90;;;;;;5084826;28;20192;-79
2023/07/25 05:30:37;;;;;;;11.00;4.10;;;27.60;99.90;;;;;;5084034;28;20421;-83
2023/07/25 05:33:03;;;;;;;7.30;3.20;;;27.60;99.90;;;;;;5086366;28;20592;-79
2023/07/25 05:35:29;;;;;;;6.10;3.67;;;27.70;99.90;;;;;;5086388;28;20165;-83
2023/07/25 05:37:54;;;;;;;8.23;3.30;;;27.70;99.90;;;;;;5082974;28;20213;-84
2023/07/25 05:40:20;;;;;;;8.10;4.40;;;27.80;99.90;;;;;;5081110;28;20176;-79
2023/07/25 05:42:47;;;;;;;7.33;3.27;;;27.70;99.90;;;;;;5073450;28;20260;-79
2023/07/25 05:45:13;;;;;;;8.47;4.40;;;27.80;99.90;;;;;;5064395;28;20215;-84
2023/07/25 05:47:38;;;;;;;4.70;2.97;;;27.80;99.90;;;;;;5076296;28;20465;-79
2023/07/25 05:50:05;;;;;;;6.97;3.33;;;27.90;99.90;;;;;;5081153;28;20815;-83
2023/07/25 05:52:31;;;;;;;6.90;3.70;;;;;;;;;;5079365;28;20332;-78
2023/07/25 05:54:57;;;;;;;8.07;3.80;;;27.90;99.90;;;;;;5078774;28;20961;-84
2023/07/25 05:57:22;;;;;;;59.93;37.40;;;27.90;99.90;;;;;;5081033;28;20276;-79
2023/07/25 05:59:48;;;;;;;8.10;4.17;;;27.90;99.90;;;;;;5082595;28;20238;-83
2023/07/25 06:02:16;;;;;;;6.73;3.97;;;27.90;99.90;;;;;;5082803;28;20277;-83
2023/07/25 06:04:43;;;;;;;5.87;3.13;;;27.90;99.90;;;;;;5083153;28;20522;-79
2023/07/25 06:07:08;;;;;;;10.17;3.87;;;28.00;99.90;;;;;;5084500;28;20440;-83
2023/07/25 06:09:34;;;;;;;7.47;3.37;;;28.00;99.90;;;;;;5082804;28;20421;-83
2023/07/25 06:12:00;;;;;;;11.00;3.70;;;28.00;99.90;;;;;;5081188;28;20208;-83
2023/07/25 06:14:25;;;;;;;9.30;3.93;;;28.00;99.90;;;;;;5080996;28;20672;-80
2023/07/25 06:16:51;;;;;;;6.60;3.63;;;28.10;99.90;;;;;;5068210;28;20228;-83
2023/07/25 06:19:17;;;;;;;8.00;3.50;;;28.20;99.90;;;;;;5061859;28;20248;-80
2023/07/25 06:21:42;;;;;;;4.93;3.33;;;28.30;99.90;;;;;;5097249;28;20204;-78
2023/07/25 06:24:08;;;;;;;6.30;3.27;;;28.30;99.90;;;;;;5081058;28;20268;-82
2023/07/25 06:26:34;;;;;;;7.82;4.32;;;28.40;99.90;;;;;;5080321;28;20489;-81
2023/07/25 06:29:00;;;;;;;6.07;3.70;;;28.70;99.90;;;;;;5082183;28;20479;-79
2023/07/25 06:31:25;;;;;;;7.77;3.47;;;28.60;99.90;;;;;;5081056;28;20693;-79
2023/07/25 06:33:51;;;;;;;6.60;3.57;;;28.50;99.90;;;;;;5080175;28;20456;-79
2023/07/25 06:36:17;;;;;;;5.70;3.70;;;28.50;99.90;;;;;;5073503;28;20196;-79
2023/07/25 06:38:43;;;;;;;6.37;3.10;;;28.60;99.90;;;;;;5080476;28;20250;-83
2023/07/25 06:41:08;;;;;;;5.77;3.30;;;28.70;99.90;;;;;;5082472;28;20213;-79
2023/07/25 06:43:34;;;;;;;6.00;3.00;;;28.70;99.90;;;;;;5086127;28;20696;-79
2023/07/25 06:45:59;;;;;;;5.73;3.30;;;28.80;99.90;;;;;;5087835;28;20642;-82
2023/07/25 06:48:25;;;;;;;5.10;2.87;;;28.80;99.90;;;;;;5087920;28;20561;-79
2023/07/25 06:50:51;;;;;;;4.60;3.10;;;29.00;99.90;;;;;;5087769;28;20175;-83
2023/07/25 06:53:16;;;;;;;10.60;3.60;;;29.10;99.90;;;;;;5084070;28;20210;-79
2023/07/25 06:55:42;;;;;;;4.90;2.90;;;29.30;99.90;;;;;;5084792;28;20201;-79
2023/07/25 06:58:13;;;;;;;5.37;3.10;;;29.40;99.90;;;;;;5085232;28;20691;-81
2023/07/25 07:00:45;;;;;;;6.20;3.30;;;29.50;99.90;;;;;;5085837;28;20215;-84
2023/07/25 07:03:11;;;;;;;4.63;2.60;;;29.60;99.90;;;;;;5084544;28;20444;-84
2023/07/25 07:05:37;;;;;;;4.60;2.40;;;29.70;99.90;;;;;;5082996;28;20408;-84
2023/07/25 07:08:02;;;;;;;4.97;2.83;;;29.70;99.90;;;;;;5082482;28;20257;-80
2023/07/25 07:10:29;;;;;;;6.03;3.00;;;29.80;99.90;;;;;;5083647;28;20653;-84
2023/07/25 07:12:55;;;;;;;7.90;3.23;;;29.90;99.90;;;;;;5079527;28;20287;-81
2023/07/25 07:15:26;;;;;;;7.03;2.80;;;30.00;99.90;;;;;;5081837;28;20499;-80
2023/07/25 07:17:52;;;;;;;7.00;3.00;;;30.10;99.90;;;;;;5074014;28;20261;-80
2023/07/25 07:20:18;;;;;;;5.73;2.87;;;30.20;99.90;;;;;;5061730;28;20439;-81
2023/07/25 07:22:44;;;;;;;4.20;2.80;;;30.30;99.90;;;;;;5072799;28;21302;-80
2023/07/25 07:25:10;;;;;;;4.33;3.27;;;30.30;99.90;;;;;;5073274;28;20547;-84
2023/07/25 07:27:36;;;;;;;9.83;3.70;;;30.20;99.90;;;;;;5075304;28;20219;-84
2023/07/25 07:30:03;;;;;;;5.50;2.83;;;30.30;99.90;;;;;;5062545;28;20185;-85
2023/07/25 07:32:28;;;;;;;3.80;3.10;;;30.40;99.90;;;;;;5064530;28;20732;-83
2023/07/25 07:34:54;;;;;;;5.33;3.10;;;30.50;99.90;;;;;;5073521;28;20431;-83
2023/07/25 07:37:19;;;;;;;5.03;2.90;;;30.60;99.90;;;;;;5063195;28;20207;-84
2023/07/25 07:39:45;;;;;;;6.30;2.53;;;30.70;99.90;;;;;;5063453;28;20183;-82
2023/07/25 07:42:11;;;;;;;5.67;2.80;;;30.90;99.90;;;;;;5072186;28;20224;-80
2023/07/25 07:44:37;;;;;;;6.68;3.03;;;31.00;99.90;;;;;;5078197;28;20413;-83
2023/07/25 07:47:03;;;;;;;5.80;2.70;;;31.30;99.90;;;;;;5076217;28;20446;-78
2023/07/25 07:49:28;;;;;;;6.40;3.40;;;31.50;99.90;;;;;;5078960;28;21000;-80
2023/07/25 07:51:54;;;;;;;4.30;3.10;;;31.70;99.90;;;;;;5080752;28;20223;-80
2023/07/25 07:54:20;;;;;;;4.30;3.43;;;31.80;99.90;;;;;;5074215;28;20210;-84
2023/07/25 07:56:45;;;;;;;31.57;20.53;;;31.90;99.90;;;;;;5084660;28;20679;-79
2023/07/25 07:59:11;;;;;;;3.70;2.20;;;31.90;99.90;;;;;;5082795;28;20796;-84
2023/07/25 08:01:37;;;;;;;5.10;2.80;;;31.90;99.10;;;;;;5079831;28;20208;-80
2023/07/25 08:04:02;;;;;;;5.20;3.10;;;31.80;99.20;;;;;;5072725;28;20607;-84
2023/07/25 08:06:28;;;;;;;5.03;2.70;;;31.80;99.50;;;;;;5078448;28;20185;-84
2023/07/25 08:08:53;;;;;;;6.80;2.90;;;31.90;99.20;;;;;;5075242;28;20181;-85
2023/07/25 08:11:19;;;;;;;3.83;2.60;;;32.00;99.00;;;;;;5060278;28;20173;-84
2023/07/25 08:13:45;;;;;;;4.73;2.10;;;32.10;98.80;;;;;;5064658;28;20216;-84
2023/07/25 08:16:10;;;;;;;4.13;2.57;;;32.00;97.80;;;;;;5080508;28;20199;-79
2023/07/25 08:18:36;;;;;;;3.60;2.20;;;32.10;96.60;;;;;;5080354;28;20253;-79
2023/07/25 08:21:02;;;;;;;5.10;2.20;;;32.10;96.50;;;;;;5079682;28;20212;-83
2023/07/25 08:23:28;;;;;;;7.60;2.60;;;32.10;96.60;;;;;;5078994;28;20840;-84
2023/07/25 08:25:55;;;;;;;4.67;2.30;;;32.10;96.40;;;;;;5096144;28;20177;-83
2023/07/25 08:28:21;;;;;;;2.60;1.93;;;32.20;95.90;;;;;;5093984;27;20204;-79
2023/07/25 08:30:47;;;;;;;3.37;2.40;;;32.30;95.30;;;;;;5076510;28;20494;-79
2023/07/25 08:33:15;;;;;;;2.70;2.10;;;32.50;95.10;;;;;;5081808;28;20204;-84
2023/07/25 08:35:41;;;;;;;12.90;9.13;;;32.50;94.50;;;;;;5098504;28;20421;-83
2023/07/25 08:38:07;;;;;;;4.40;2.00;;;32.60;94.80;;;;;;5083763;28;20433;-84
2023/07/25 08:40:32;;;;;;;4.90;2.50;;;32.70;95.20;;;;;;5082321;28;21105;-79
2023/07/25 08:43:05;;;;;;;3.87;1.93;;;32.80;95.50;;;;;;5066771;28;20781;-84
2023/07/25 08:45:32;;;;;;;3.10;2.43;;;32.90;94.40;;;;;;5061822;28;20727;-79
2023/07/25 08:48:04;;;;;;;3.83;2.40;;;32.90;94.60;;;;;;5062427;28;20441;-84
2023/07/25 08:50:31;;;;;;;2.73;2.43;;;33.00;93.70;;;;;;5062127;28;20405;-84
2023/07/25 08:53:00;;;;;;;3.00;2.37;;;33.00;93.90;;;;;;5073680;28;20457;-79
2023/07/25 08:55:26;;;;;;;2.30;1.77;;;33.00;94.20;;;;;;5079727;28;20464;-84
2023/07/25 08:57:52;;;;;;;4.87;2.87;;;33.10;93.50;;;;;;5067667;28;20884;-84
2023/07/25 09:00:18;;;;;;;5.30;2.50;;;33.00;93.50;;;;;;5081907;28;20424;-79
2023/07/25 09:02:44;;;;;;;3.80;2.17;;;33.10;93.40;;;;;;5080528;28;20502;-78
2023/07/25 09:05:10;;;;;;;2.67;2.30;;;33.20;92.70;;;;;;5082630;28;20892;-82
2023/07/25 09:07:36;;;;;;;5.07;2.30;;;33.30;93.50;;;;;;5080865;28;20715;-84
2023/07/25 09:10:02;;;;;;;3.67;2.47;;;33.40;93.00;;;;;;5076361;28;20184;-79
2023/07/25 09:12:30;;;;;;;4.53;2.57;;;33.40;92.50;;;;;;5085570;28;20296;-78
2023/07/25 09:14:55;;;;;;;5.80;2.40;;;33.40;92.50;;;;;;5082712;28;20429;-79
2023/07/25 09:17:21;;;;;;;4.20;2.67;;;33.40;92.90;;;;;;5082234;28;20506;-84
2023/07/25 09:19:47;;;;;;;4.80;2.90;;;33.50;93.10;;;;;;5082470;28;20184;-84
2023/07/25 09:22:31;;;;;;;3.43;2.70;;;33.70;93.00;;;;;;5084503;28;20489;-79
2023/07/25 09:24:58;;;;;;;3.70;2.80;;;33.90;92.70;;;;;;5084299;28;20421;-79
2023/07/25 09:27:25;;;;;;;4.80;3.30;;;34.00;92.70;;;;;;5084700;28;20817;-84
2023/07/25 09:29:52;;;;;;;4.93;2.90;;;34.10;92.00;;;;;;5075807;28;20797;-79
2023/07/25 09:32:24;;;;;;;4.67;3.10;;;34.10;92.20;;;;;;5075608;28;20855;-83
2023/07/25 09:34:54;;;;;;;5.80;2.60;;;34.10;91.80;;;;;;5077790;28;20425;-85
2023/07/25 09:37:20;;;;;;;8.70;3.87;;;34.10;91.30;;;;;;5080530;28;20476;-84
2023/07/25 09:39:46;;;;;;;5.60;3.17;;;34.20;91.80;;;;;;5082930;28;20432;-79
2023/07/25 09:42:11;;;;;;;6.80;3.93;;;34.30;91.40;;;;;;5081636;28;21218;-79
2023/07/25 09:44:44;;;;;;;5.43;3.00;;;34.40;91.60;;;;;;5081220;28;20199;-84
2023/07/25 09:47:09;;;;;;;5.37;3.07;;;34.40;91.90;;;;;;5083690;28;20246;-85
2023/07/25 09:49:35;;;;;;;4.60;3.00;;;34.40;91.40;;;;;;5082736;28;20437;-83
2023/07/25 09:52:03;;;;;;;6.00;3.70;;;34.50;91.70;;;;;;5081029;28;20208;-79
2023/07/25 09:54:29;;;;;;;4.20;3.43;;;34.60;92.90;;;;;;5071852;28;20234;-84
2023/07/25 09:56:55;;;;;;;5.87;3.10;;;34.80;92.40;;;;;;5081426;28;21099;-79
2023/07/25 09:59:22;;;;;;;7.67;3.47;;;34.90;91.40;;;;;;5075373;28;20224;-84
2023/07/25 10:01:50;;;;;;;5.23;3.53;;;34.90;91.20;;;;;;5079770;28;20472;-79
2023/07/25 10:04:16;;;;;;;6.40;3.50;;;35.00;91.40;;;;;;5070960;28;21119;-79
2023/07/25 10:06:42;;;;;;;8.30;2.97;;;35.00;90.80;;;;;;5076107;28;20520;-85
2023/07/25 10:09:09;;;;;;;6.22;3.15;;;34.90;89.80;;;;;;5079590;28;20426;-83
2023/07/25 10:11:36;;;;;;;49.23;32.80;;;34.90;90.00;;;;;;5072309;28;20187;-80
2023/07/25 10:14:02;;;;;;;8.90;6.73;;;34.80;90.00;;;;;;5073786;28;20433;-84
2023/07/25 10:16:28;;;;;;;7.33;3.23;;;34.80;89.90;;;;;;5095154;28;20443;-84
2023/07/25 10:18:57;;;;;;;5.70;3.30;;;34.80;89.60;;;;;;5077960;28;20443;-83
2023/07/25 10:21:27;;;;;;;8.43;2.90;;;34.80;88.60;;;;;;5073886;28;20468;-84
2023/07/25 10:23:58;;;;;;;5.47;3.10;;;34.80;89.80;;;;;;5061768;28;20410;-78
2023/07/25 10:26:24;;;;;;;5.53;3.53;;;34.60;88.80;;;;;;5061436;28;20907;-78
2023/07/25 10:28:49;;;;;;;4.67;3.40;;;34.50;89.40;;;;;;5079304;28;20480;-83
2023/07/25 10:31:33;;;;;;;4.83;3.10;;;34.50;89.00;;;;;;5079800;28;20629;-79
2023/07/25 10:34:00;;;;;;;4.43;3.03;;;34.60;89.70;;;;;;5081225;28;20813;-79
2023/07/25 10:36:26;;;;;;;5.07;3.50;;;34.60;90.10;;;;;;5083113;28;20482;-84
2023/07/25 10:39:05;;;;;;;9.23;3.73;;;34.80;89.40;;;;;;5096901;28;21003;-84
2023/07/25 10:41:30;;;;;;;6.20;3.57;;;34.90;88.80;;;;;;5115917;28;20199;-79
2023/07/25 10:43:59;;;;;;;8.90;3.90;;;34.80;88.30;;;;;;5096424;28;20639;-79
2023/07/25 10:46:32;;;;;;;7.33;3.40;;;34.90;88.10;;;;;;5082341;28;20192;-79
2023/07/25 10:49:01;;;;;;;6.30;3.47;;;34.90;88.30;;;;;;5082872;28;20432;-84
2023/07/25 10:51:50;;;;;;;8.03;3.33;;;34.80;88.30;;;;;;5084050;28;20412;-79
2023/07/25 10:54:18;;;;;;;7.77;3.57;;;34.70;89.00;;;;;;5081431;28;20437;-84
2023/07/25 10:57:09;;;;;;;148.97;117.23;;;34.70;88.90;;;;;;5078927;28;20909;-78
2023/07/25 10:59:58;;;;;;;15.60;4.20;;;34.70;90.10;;;;;;5081309;28;20416;-79
2023/07/25 11:02:41;;;;;;;7.23;3.93;;;35.00;87.80;;;;;;5075756;28;21008;-78
2023/07/25 11:05:13;;;;;;;9.70;4.37;;;34.90;88.50;;;;;;5074363;28;20499;-79
2023/07/25 11:07:59;;;;;;;8.13;4.00;;;34.90;87.50;;;;;;5072395;28;20456;-83
2023/07/25 11:10:26;;;;;;;10.10;4.63;;;35.00;86.30;;;;;;5072734;28;21329;-78
2023/07/25 11:12:57;;;;;;;15.03;4.27;;;35.00;86.40;;;;;;5070850;28;21171;-79
2023/07/25 11:15:24;;;;;;;8.87;3.80;;;35.10;86.10;;;;;;5073047;28;20413;-84
2023/07/25 11:17:49;;;;;;;20.80;5.13;;;35.20;84.90;;;;;;5064375;28;20445;-84
2023/07/25 11:20:18;;;;;;;12.40;3.67;;;35.30;83.00;;;;;;5072976;28;20410;-84
2023/07/25 11:22:48;;;;;;;7.30;3.30;;;35.30;83.00;;;;;;5069361;28;20304;-86
2023/07/25 11:25:14;;;;;;;10.23;4.00;;;35.50;83.70;;;;;;5071388;28;20421;-85
2023/07/25 11:27:41;;;;;;;12.23;4.40;;;35.50;83.50;;;;;;5075453;28;20493;-86
2023/07/25 11:30:13;;;;;;;13.20;4.70;;;35.40;83.10;;;;;;5075261;28;20823;-85
2023/07/25 11:32:44;;;;;;;7.07;4.03;;;35.30;82.50;;;;;;5073127;28;20776;-85
2023/07/25 11:35:10;;;;;;;7.83;3.07;;;35.20;82.50;;;;;;5072806;28;20421;-86
2023/07/25 11:37:36;;;;;;;5.70;3.10;;;35.20;80.50;;;;;;5074253;28;20448;-77
2023/07/25 11:40:19;;;;;;;6.80;3.60;;;35.20;79.60;;;;;;5073346;28;20338;-84
2023/07/25 11:42:49;;;;;;;7.43;3.57;;;35.30;80.60;;;;;;5074190;28;20250;-77
2023/07/25 11:45:16;;;;;;;10.50;4.10;;;35.30;81.50;;;;;;5073365;28;20569;-77
2023/07/25 11:47:44;;;;;;;10.63;4.70;;;35.30;81.70;;;;;;5073806;28;21212;-85
2023/07/25 11:50:12;;;;;;;11.40;4.70;;;35.20;82.10;;;;;;5075486;28;20866;-77
2023/07/25 11:52:42;;;;;;;10.87;4.20;;;35.30;82.40;;;;;;5075218;28;20928;-78
2023/07/25 11:55:09;;;;;;;10.43;4.50;;;35.30;82.10;;;;;;5071736;28;20433;-77
2023/07/25 11:57:41;;;;;;;6.83;3.70;;;35.40;82.50;;;;;;5084551;28;20531;-85
2023/07/25 12:00:11;;;;;;;10.53;4.90;;;35.40;81.80;;;;;;5078500;28;20519;-77
2023/07/25 12:02:39;;;;;;;18.17;4.27;;;35.30;82.30;;;;;;5079623;28;20476;-85
2023/07/25 12:05:05;;;;;;;8.10;5.20;;;35.10;82.60;;;;;;5078537;28;20773;-77
2023/07/25 12:07:53;;;;;;;9.20;4.73;;;35.00;82.30;;;;;;5066919;28;20471;-77
2023/07/25 12:10:46;;;;;;;10.97;5.40;;;34.90;82.20;;;;;;5076020;28;20449;-85
2023/07/25 12:13:12;;;;;;;11.17;5.00;;;34.80;82.50;;;;;;5066312;28;20547;-77
2023/07/25 12:15:43;;;;;;;15.43;5.53;;;34.60;83.70;;;;;;5074657;28;20536;-78
2023/07/25 12:18:29;;;;;;;13.40;5.57;;;34.50;84.30;;;;;;5077497;28;20242;-85
2023/07/25 12:20:56;;;;;;;15.73;4.93;;;34.30;84.80;;;;;;5069320;28;20538;-77
2023/07/25 12:23:38;;;;;;;13.53;5.77;;;34.20;85.50;;;;;;5077709;28;20451;-86
2023/07/25 12:26:05;;;;;;;10.73;4.07;;;34.00;88.40;;;;;;5076250;28;20510;-86
2023/07/25 12:28:44;;;;;;;11.73;4.43;;;33.70;89.20;;;;;;5068000;28;20456;-77
2023/07/25 12:31:10;;;;;;;11.30;4.87;;;33.40;89.50;;;;;;5077663;28;20503;-85
2023/07/25 12:33:36;;;;;;;11.20;4.40;;;33.20;90.00;;;;;;5077824;28;20464;-85
2023/07/25 12:36:03;;;;;;;12.53;4.53;;;32.90;90.30;;;;;;5074413;28;20976;-83
2023/07/25 12:38:28;;;;;;;10.77;4.40;;;32.60;91.60;;;;;;5078460;28;20281;-85
2023/07/25 12:40:54;;;;;;;12.77;5.23;;;32.30;93.00;;;;;;5098602;27;20558;-80
2023/07/25 12:43:20;;;;;;;11.90;4.33;;;32.00;93.40;;;;;;5080190;28;20437;-75